createdAt,value
2018-12-25T00:01:42.663Z,5.90
2018-12-25T00:04:10.845Z,5.90
2018-12-25T00:06:38.658Z,6.27
2018-12-25T00:09:06.795Z,5.80
2018-12-25T00:11:34.935Z,6.10
2018-12-25T00:14:02.484Z,6.00
2018-12-25T00:16:30.390Z,6.23
2018-12-25T00:19:05.929Z,5.97
2018-12-25T00:21:27.612Z,7.03
2018-12-25T00:23:55.809Z,6.07
2018-12-25T00:26:23.259Z,6.70
2018-12-25T00:28:50.891Z,6.60
2018-12-25T00:31:18.410Z,5.93
2018-12-25T00:33:46.696Z,5.20
2018-12-25T00:36:14.278Z,6.10
2018-12-25T00:38:42.059Z,6.20
2018-12-25T00:41:09.514Z,6.80
2018-12-25T00:43:37.983Z,6.30
2018-12-25T00:46:05.494Z,6.63
2018-12-25T00:48:33.674Z,5.83
2018-12-25T00:51:01.130Z,6.03
2018-12-25T00:53:28.572Z,5.60
2018-12-25T00:55:56.635Z,8.50
2018-12-25T00:58:24.374Z,7.33
2018-12-25T01:00:51.874Z,6.10
2018-12-25T01:03:19.969Z,7.10
2018-12-25T01:05:47.498Z,7.20
2018-12-25T01:08:14.945Z,7.13
2018-12-25T01:10:42.899Z,6.33
2018-12-25T01:13:10.990Z,6.33
2018-12-25T01:15:38.867Z,5.92
2018-12-25T01:18:07.035Z,5.40
2018-12-25T01:20:34.638Z,5.42
2018-12-25T01:23:02.406Z,6.30
2018-12-25T01:25:30.787Z,5.90
2018-12-25T01:27:58.427Z,5.60
2018-12-25T01:30:26.196Z,7.00
2018-12-25T01:32:53.762Z,6.90
2018-12-25T01:35:21.616Z,6.80
2018-12-25T01:37:49.415Z,7.63
2018-12-25T01:40:17.303Z,6.60
2018-12-25T01:42:45.086Z,6.30
2018-12-25T01:45:13.070Z,7.87
2018-12-25T01:47:40.998Z,6.95
2018-12-25T01:50:08.924Z,7.03
2018-12-25T01:52:36.749Z,5.80
2018-12-25T01:55:04.906Z,5.93
2018-12-25T01:57:32.382Z,5.70
2018-12-25T02:00:00.250Z,5.77
2018-12-25T02:02:28.390Z,5.67
2018-12-25T02:04:56.266Z,7.13
2018-12-25T02:07:24.026Z,5.90
2018-12-25T02:09:52.008Z,6.53
2018-12-25T02:12:19.454Z,7.33
2018-12-25T02:14:46.978Z,6.97
2018-12-25T02:17:14.827Z,6.83
2018-12-25T02:19:42.393Z,6.65
2018-12-25T02:22:09.864Z,8.43
2018-12-25T02:24:37.923Z,7.80
2018-12-25T02:27:05.962Z,7.73
2018-12-25T02:29:33.674Z,7.90
2018-12-25T02:32:01.432Z,6.97
2018-12-25T02:34:29.255Z,7.92
2018-12-25T02:36:57.202Z,6.83
2018-12-25T02:39:24.979Z,6.72
2018-12-25T02:41:53.528Z,5.47
2018-12-25T02:44:21.375Z,5.70
2018-12-25T02:46:48.942Z,6.60
2018-12-25T02:49:18.377Z,5.63
2018-12-25T02:51:46.271Z,5.17
2018-12-25T02:54:14.107Z,6.20
2018-12-25T02:56:42.036Z,5.80
2018-12-25T02:59:09.810Z,5.50
2018-12-25T03:01:37.711Z,4.83
2018-12-25T03:04:05.294Z,5.05
2018-12-25T03:06:33.205Z,5.45
2018-12-25T03:09:00.990Z,5.87
2018-12-25T03:11:28.762Z,6.85
2018-12-25T03:13:56.503Z,5.85
2018-12-25T03:16:24.600Z,5.58
2018-12-25T03:18:52.084Z,5.75
2018-12-25T03:21:19.987Z,5.67
2018-12-25T03:23:47.479Z,6.35
2018-12-25T03:26:15.733Z,6.73
2018-12-25T03:28:43.600Z,5.53
2018-12-25T03:31:11.512Z,6.00
2018-12-25T03:33:39.348Z,5.42
2018-12-25T03:36:07.165Z,5.85
2018-12-25T03:38:34.976Z,6.90
2018-12-25T03:41:02.962Z,6.10
2018-12-25T03:43:30.450Z,5.77
2018-12-25T03:46:17.839Z,6.37
2018-12-25T03:48:45.432Z,6.17
2018-12-25T03:51:13.626Z,6.90
2018-12-25T03:53:41.198Z,6.87
2018-12-25T03:56:09.015Z,6.85
2018-12-25T03:58:36.546Z,6.75
2018-12-25T04:01:04.319Z,6.70
2018-12-25T04:03:32.005Z,6.42
2018-12-25T04:05:59.567Z,6.15
2018-12-25T04:08:27.645Z,6.27
2018-12-25T04:10:55.421Z,6.57
2018-12-25T04:13:23.339Z,6.60
2018-12-25T04:15:51.273Z,6.67
2018-12-25T04:18:19.150Z,6.10
2018-12-25T04:20:46.930Z,5.70
2018-12-25T04:23:14.739Z,7.28
2018-12-25T04:25:42.202Z,8.10
2018-12-25T04:28:09.862Z,8.05
2018-12-25T04:30:37.698Z,6.95
2018-12-25T04:33:05.210Z,6.73
2018-12-25T04:35:32.737Z,6.13
2018-12-25T04:38:00.280Z,6.60
2018-12-25T04:40:28.096Z,6.43
2018-12-25T04:42:55.863Z,6.90
2018-12-25T04:45:23.770Z,6.97
2018-12-25T04:47:51.930Z,5.83
2018-12-25T04:50:19.440Z,6.37
2018-12-25T04:52:47.682Z,6.58
2018-12-25T04:55:15.150Z,5.80
2018-12-25T04:57:43.090Z,6.53
2018-12-25T05:00:10.911Z,6.55
2018-12-25T05:02:38.667Z,5.20
2018-12-25T05:05:06.459Z,7.30
2018-12-25T05:07:34.015Z,5.80
2018-12-25T05:10:02.177Z,6.47
2018-12-25T05:12:29.818Z,6.35
2018-12-25T05:14:57.624Z,6.37
2018-12-25T05:17:25.363Z,7.33
2018-12-25T05:19:53.443Z,5.78
2018-12-25T05:22:21.059Z,6.55
2018-12-25T05:24:48.985Z,6.85
2018-12-25T05:27:16.515Z,8.50
2018-12-25T05:29:44.484Z,6.40
2018-12-25T05:32:12.294Z,6.47
2018-12-25T05:34:39.790Z,6.67
2018-12-25T05:37:07.658Z,6.25
2018-12-25T05:39:35.198Z,6.60
2018-12-25T05:42:02.816Z,6.58
2018-12-25T05:44:30.610Z,5.95
2018-12-25T05:46:58.222Z,6.65
2018-12-25T05:49:25.790Z,6.28
2018-12-25T05:51:53.379Z,6.12
2018-12-25T05:54:21.210Z,5.80
2018-12-25T05:56:48.685Z,5.75
2018-12-25T05:59:16.551Z,6.60
2018-12-25T06:01:44.021Z,6.30
2018-12-25T06:04:11.914Z,6.15
2018-12-25T06:06:40.021Z,6.80
2018-12-25T06:09:07.596Z,6.00
2018-12-25T06:11:35.101Z,6.03
2018-12-25T06:14:02.655Z,6.55
2018-12-25T06:16:30.183Z,8.45
2018-12-25T06:18:57.787Z,7.10
2018-12-25T06:21:25.407Z,7.03
2018-12-25T06:23:52.952Z,8.33
2018-12-25T06:26:21.146Z,6.58
2018-12-25T06:28:49.018Z,7.72
2018-12-25T06:31:16.488Z,7.60
2018-12-25T06:33:44.264Z,6.55
2018-12-25T06:36:12.386Z,8.08
2018-12-25T06:38:39.991Z,6.87
2018-12-25T06:41:07.822Z,8.40
2018-12-25T06:43:35.506Z,8.25
2018-12-25T06:46:02.978Z,7.12
2018-12-25T06:48:30.874Z,6.40
2018-12-25T06:51:03.727Z,8.43
2018-12-25T06:53:28.399Z,7.42
2018-12-25T06:55:55.971Z,6.45
2018-12-25T06:58:23.456Z,8.03
2018-12-25T07:00:51.078Z,7.90
2018-12-25T07:03:18.899Z,8.00
2018-12-25T07:05:46.758Z,8.00
2018-12-25T07:08:14.511Z,7.65
2018-12-25T07:10:42.003Z,8.63
2018-12-25T07:13:09.598Z,8.05
2018-12-25T07:15:37.159Z,7.50
2018-12-25T07:18:04.983Z,7.28
2018-12-25T07:20:32.778Z,8.88
2018-12-25T07:23:00.322Z,7.83
2018-12-25T07:25:28.290Z,7.80
2018-12-25T07:27:55.772Z,7.15
2018-12-25T07:30:23.377Z,7.80
2018-12-25T07:32:51.519Z,7.45
2018-12-25T07:35:19.259Z,6.22
2018-12-25T07:37:46.870Z,8.48
2018-12-25T07:40:15.110Z,11.25
2018-12-25T07:42:42.694Z,12.68
2018-12-25T07:45:10.496Z,10.00
2018-12-25T07:47:37.951Z,9.48
2018-12-25T07:50:06.014Z,10.38
2018-12-25T07:52:33.763Z,10.18
2018-12-25T07:55:01.244Z,9.65
2018-12-25T07:57:28.763Z,11.28
2018-12-25T07:59:56.346Z,10.43
2018-12-25T08:02:24.175Z,11.12
2018-12-25T08:04:52.266Z,11.90
2018-12-25T08:07:19.774Z,10.48
2018-12-25T08:09:47.634Z,10.85
2018-12-25T08:12:15.438Z,9.20
2018-12-25T08:14:43.468Z,9.73
2018-12-25T08:17:11.087Z,7.62
2018-12-25T08:19:39.063Z,6.97
2018-12-25T08:22:06.901Z,8.78
2018-12-25T08:24:34.750Z,8.27
2018-12-25T08:27:02.300Z,9.03
2018-12-25T08:29:29.906Z,7.57
2018-12-25T08:31:57.404Z,8.70
2018-12-25T08:34:25.330Z,7.80
2018-12-25T08:36:52.814Z,7.10
2018-12-25T08:39:20.751Z,6.70
2018-12-25T08:41:48.503Z,8.20
2018-12-25T08:44:16.030Z,6.27
2018-12-25T08:46:43.638Z,8.55
2018-12-25T08:49:11.503Z,6.70
2018-12-25T08:51:40.147Z,8.20
2018-12-25T08:54:07.685Z,7.90
2018-12-25T08:56:35.290Z,7.50
2018-12-25T08:59:03.263Z,8.00
2018-12-25T09:01:31.689Z,7.33
2018-12-25T09:03:59.486Z,7.37
2018-12-25T09:06:27.318Z,7.97
2018-12-25T09:08:55.214Z,7.10
2018-12-25T09:11:23.110Z,7.43
2018-12-25T09:13:50.639Z,7.30
2018-12-25T09:16:18.154Z,6.10
2018-12-25T09:18:45.948Z,7.33
2018-12-25T09:21:13.576Z,6.60
2018-12-25T09:23:41.770Z,6.57
2018-12-25T09:26:09.578Z,6.83
2018-12-25T09:28:37.155Z,6.90
2018-12-25T09:31:05.380Z,6.27
2018-12-25T09:33:33.215Z,5.90
2018-12-25T09:36:00.720Z,5.87
2018-12-25T09:38:28.615Z,6.33
2018-12-25T09:40:59.499Z,8.10
2018-12-25T09:43:27.522Z,6.50
2018-12-25T09:45:55.366Z,8.90
2018-12-25T09:48:23.310Z,9.67
2018-12-25T09:50:51.229Z,8.70
2018-12-25T09:53:19.224Z,7.33
2018-12-25T09:55:47.837Z,9.10
2018-12-25T09:58:16.222Z,7.73
2018-12-25T10:00:44.302Z,7.80
2018-12-25T10:03:14.474Z,7.60
2018-12-25T10:05:41.966Z,8.00
2018-12-25T10:08:09.549Z,8.30
2018-12-25T10:10:37.215Z,8.57
2018-12-25T10:13:04.786Z,7.33
2018-12-25T10:15:32.933Z,7.03
2018-12-25T10:18:00.474Z,8.50
2018-12-25T10:20:28.454Z,8.40
2018-12-25T10:22:56.219Z,8.93
2018-12-25T10:25:23.726Z,6.97
2018-12-25T10:27:51.404Z,8.30
2018-12-25T10:30:19.194Z,7.93
2018-12-25T10:32:48.703Z,9.07
2018-12-25T10:35:16.405Z,8.50
2018-12-25T10:37:45.848Z,9.50
2018-12-25T10:40:14.018Z,9.20
2018-12-25T10:42:41.782Z,9.73
2018-12-25T10:45:09.339Z,9.20
2018-12-25T10:47:37.158Z,9.57
2018-12-25T10:50:05.709Z,9.90
2018-12-25T10:52:33.591Z,10.10
2018-12-25T10:55:01.871Z,8.60
2018-12-25T10:57:29.754Z,10.20
2018-12-25T10:59:57.662Z,10.73
2018-12-25T11:02:25.254Z,8.23
2018-12-25T11:04:54.921Z,8.77
2018-12-25T11:07:22.961Z,10.37
2018-12-25T11:09:50.512Z,8.13
2018-12-25T11:12:18.695Z,10.13
2018-12-25T11:14:46.544Z,10.70
2018-12-25T11:17:14.514Z,9.63
2018-12-25T11:19:42.002Z,10.10
2018-12-25T11:22:10.399Z,11.10
2018-12-25T11:24:39.042Z,11.60
2018-12-25T11:27:07.742Z,9.83
2018-12-25T11:29:35.526Z,10.00
2018-12-25T11:32:03.227Z,9.73
2018-12-25T11:34:38.504Z,9.37
2018-12-25T11:37:06.846Z,8.80
2018-12-25T11:39:35.468Z,8.47
2018-12-25T11:42:04.503Z,7.90
2018-12-25T11:44:32.456Z,7.53
2018-12-25T11:47:00.330Z,7.70
2018-12-25T11:49:31.080Z,8.70
2018-12-25T11:51:59.169Z,7.93
2018-12-25T11:54:26.703Z,7.90
2018-12-25T11:56:55.486Z,7.47
2018-12-25T11:59:23.703Z,8.43
2018-12-25T12:01:53.624Z,7.00
2018-12-25T12:04:21.476Z,7.27
2018-12-25T12:06:49.398Z,6.60
2018-12-25T12:09:18.169Z,6.30
2018-12-25T12:12:07.554Z,7.60
2018-12-25T12:14:36.423Z,7.07
2018-12-25T12:17:04.143Z,6.30
2018-12-25T12:19:32.011Z,7.20
2018-12-25T12:21:59.557Z,6.77
2018-12-25T12:24:27.201Z,6.93
2018-12-25T12:26:55.586Z,6.20
2018-12-25T12:29:23.478Z,8.67
2018-12-25T12:31:51.434Z,7.00
2018-12-25T12:34:19.245Z,6.77
2018-12-25T12:36:47.123Z,6.03
2018-12-25T12:39:14.652Z,6.17
2018-12-25T12:41:42.506Z,6.97
2018-12-25T12:44:10.395Z,6.07
2018-12-25T12:46:37.931Z,7.13
2018-12-25T12:49:05.743Z,5.37
2018-12-25T12:51:33.506Z,6.00
2018-12-25T12:54:01.120Z,6.17
2018-12-25T12:56:28.707Z,6.43
2018-12-25T12:58:56.631Z,6.27
2018-12-25T13:01:24.842Z,5.00
2018-12-25T13:03:52.409Z,6.00
2018-12-25T13:06:20.351Z,6.03
2018-12-25T13:08:48.241Z,5.47
2018-12-25T13:11:15.826Z,5.40
2018-12-25T13:13:43.812Z,6.00
2018-12-25T13:16:11.747Z,5.23
2018-12-25T13:18:39.807Z,5.53
2018-12-25T13:21:07.614Z,6.03
2018-12-25T13:23:35.606Z,6.00
2018-12-25T13:26:03.519Z,7.00
2018-12-25T13:28:31.470Z,5.43
2018-12-25T13:30:59.074Z,5.47
2018-12-25T13:33:27.012Z,5.53
2018-12-25T13:35:54.950Z,6.30
2018-12-25T13:38:25.848Z,5.67
2018-12-25T13:40:56.050Z,6.77
2018-12-25T13:43:25.115Z,6.40
2018-12-25T13:45:53.454Z,5.70
2018-12-25T13:48:21.647Z,6.40
2018-12-25T13:50:49.802Z,5.63
2018-12-25T13:53:17.727Z,6.00
2018-12-25T13:55:45.306Z,5.63
2018-12-25T13:58:13.224Z,5.80
2018-12-25T14:00:40.840Z,6.03
2018-12-25T14:03:08.883Z,6.23
2018-12-25T14:05:39.291Z,6.10
2018-12-25T14:08:07.298Z,6.03
2018-12-25T14:10:35.195Z,5.87
2018-12-25T14:13:03.044Z,6.20
2018-12-25T14:15:31.855Z,5.90
2018-12-25T14:17:59.743Z,5.83
2018-12-25T14:20:27.262Z,6.03
2018-12-25T14:22:54.937Z,6.60
2018-12-25T14:25:22.520Z,5.73
2018-12-25T14:27:50.418Z,6.53
2018-12-25T14:30:18.022Z,6.83
2018-12-25T14:32:45.623Z,5.50
2018-12-25T14:35:13.622Z,5.80
2018-12-25T14:37:41.258Z,6.10
2018-12-25T14:40:09.077Z,5.90
2018-12-25T14:42:36.882Z,5.63
2018-12-25T14:45:05.447Z,6.13
2018-12-25T14:47:33.686Z,5.43
2018-12-25T14:50:01.568Z,5.50
2018-12-25T14:52:29.766Z,6.57
2018-12-25T14:54:57.668Z,6.00
2018-12-25T14:57:25.599Z,6.63
2018-12-25T14:59:53.138Z,6.80
2018-12-25T15:02:21.506Z,7.20
2018-12-25T15:05:08.418Z,6.63
2018-12-25T15:07:35.906Z,6.70
2018-12-25T15:10:04.070Z,6.43
2018-12-25T15:12:31.831Z,6.23
2018-12-25T15:14:59.507Z,6.83
2018-12-25T15:17:27.433Z,6.40
2018-12-25T15:19:55.354Z,7.07
2018-12-25T15:22:25.035Z,7.20
2018-12-25T15:24:52.818Z,7.07
2018-12-25T15:27:21.005Z,8.07
2018-12-25T15:29:48.635Z,8.10
2018-12-25T15:32:16.849Z,8.10
2018-12-25T15:34:44.779Z,7.60
2018-12-25T15:37:14.590Z,7.43
2018-12-25T15:39:42.390Z,7.77
2018-12-25T15:42:09.898Z,9.87
2018-12-25T15:44:37.511Z,10.03
2018-12-25T15:47:05.711Z,8.77
2018-12-25T15:49:33.614Z,8.63
2018-12-25T15:52:04.822Z,7.47
2018-12-25T15:54:33.041Z,8.30
2018-12-25T15:57:03.052Z,9.43
2018-12-25T15:59:30.841Z,10.63
2018-12-25T16:01:58.727Z,11.60
2018-12-25T16:04:26.926Z,12.43
2018-12-25T16:06:55.226Z,12.17
2018-12-25T16:09:23.686Z,12.10
2018-12-25T16:11:51.814Z,12.57
2018-12-25T16:14:19.914Z,17.60
2018-12-25T16:16:49.470Z,20.10
2018-12-25T16:19:17.756Z,17.23
2018-12-25T16:21:45.705Z,18.17
2018-12-25T16:24:13.523Z,17.73
2018-12-25T16:26:41.444Z,20.27
2018-12-25T16:29:08.912Z,22.20
2018-12-25T16:31:37.021Z,22.27
2018-12-25T16:34:04.626Z,22.53
2018-12-25T16:36:32.798Z,22.77
2018-12-25T16:39:00.706Z,25.10
2018-12-25T16:41:28.570Z,25.17
2018-12-25T16:43:56.346Z,21.10
2018-12-25T16:46:24.109Z,17.63
2018-12-25T16:48:51.902Z,15.87
2018-12-25T16:51:19.460Z,13.27
2018-12-25T16:53:53.503Z,10.80
2018-12-25T16:56:16.396Z,12.50
2018-12-25T16:58:43.869Z,15.00
2018-12-25T17:01:11.451Z,10.50
2018-12-25T17:03:39.026Z,7.73
2018-12-25T17:06:06.899Z,12.30
2018-12-25T17:08:34.403Z,9.73
2018-12-25T17:11:02.213Z,10.60
2018-12-25T17:13:30.331Z,9.50
2018-12-25T17:16:00.715Z,12.00
2018-12-25T17:18:29.226Z,10.27
2018-12-25T17:20:56.976Z,8.30
2018-12-25T17:23:24.835Z,8.67
2018-12-25T17:25:52.966Z,9.83
2018-12-25T17:28:27.739Z,8.90
2018-12-25T17:30:50.590Z,10.53
2018-12-25T17:33:18.450Z,9.13
2018-12-25T17:35:46.728Z,12.07
2018-12-25T17:40:48.808Z,9.53
2018-12-25T17:43:16.369Z,9.37
2018-12-25T17:45:45.118Z,10.50
2018-12-25T17:48:13.315Z,10.23
2018-12-25T17:50:41.154Z,11.60
2018-12-25T17:53:12.043Z,11.40
2018-12-25T17:55:40.165Z,12.80
2018-12-25T17:58:08.458Z,14.10
2018-12-25T18:00:36.279Z,10.93
2018-12-25T18:03:04.027Z,11.87
2018-12-25T18:05:32.193Z,10.70
2018-12-25T18:07:59.679Z,13.00
2018-12-25T18:10:27.767Z,10.47
2018-12-25T18:12:55.842Z,10.00
2018-12-25T18:15:23.642Z,10.50
2018-12-25T18:17:51.269Z,11.30
2018-12-25T18:20:19.108Z,10.03
2018-12-25T18:22:47.619Z,9.77
2018-12-25T18:25:15.693Z,11.90
2018-12-25T18:27:43.327Z,12.97
2018-12-25T18:30:17.899Z,13.63
2018-12-25T18:32:45.779Z,17.30
2018-12-25T18:35:13.815Z,18.40
2018-12-25T18:37:43.449Z,15.90
2018-12-25T18:40:11.621Z,12.30
2018-12-25T18:42:39.567Z,12.30
2018-12-25T18:45:07.558Z,14.70
2018-12-25T18:47:36.778Z,14.60
2018-12-25T18:50:05.947Z,19.03
2018-12-25T18:52:34.202Z,19.17
2018-12-25T18:55:02.382Z,23.90
2018-12-25T18:57:30.710Z,23.67
2018-12-25T18:59:58.676Z,20.33
2018-12-25T19:02:27.141Z,20.73
2018-12-25T19:04:55.303Z,20.83
2018-12-25T19:07:23.678Z,23.33
2018-12-25T19:09:52.281Z,21.43
2018-12-25T19:12:20.867Z,17.97
2018-12-25T19:15:21.214Z,18.97
2018-12-25T19:17:49.371Z,16.67
2018-12-25T19:20:17.949Z,15.60
2018-12-25T19:22:46.023Z,14.47
2018-12-25T19:25:14.068Z,13.07
2018-12-25T19:27:42.230Z,12.70
2018-12-25T19:30:10.924Z,11.07
2018-12-25T19:32:43.719Z,11.17
2018-12-25T19:35:08.987Z,11.13
2018-12-25T19:37:37.602Z,11.93
2018-12-25T19:40:06.075Z,12.90
2018-12-25T19:42:35.027Z,14.23
2018-12-25T19:45:02.869Z,12.83
2018-12-25T19:47:30.479Z,14.40
2018-12-25T19:49:58.747Z,14.00
2018-12-25T19:52:28.111Z,15.00
2018-12-25T19:54:56.032Z,13.53
2018-12-25T19:57:24.658Z,13.90
2018-12-25T19:59:52.513Z,13.10
2018-12-25T20:02:20.504Z,12.67
2018-12-25T20:05:28.982Z,13.10
2018-12-25T20:08:51.438Z,12.80
2018-12-25T20:12:11.358Z,15.30
2018-12-25T20:15:35.435Z,18.00
2018-12-25T20:18:45.847Z,16.27
2018-12-25T20:22:03.174Z,15.27
2018-12-25T20:25:06.297Z,18.43
2018-12-25T20:27:56.401Z,21.20
2018-12-25T20:30:57.634Z,19.70
2018-12-25T20:33:46.441Z,17.23
2018-12-25T20:36:46.910Z,17.90
2018-12-25T20:39:58.071Z,17.77
2018-12-25T20:42:55.365Z,17.27
2018-12-25T20:45:56.095Z,16.07
2018-12-25T20:49:16.678Z,17.47
2018-12-25T20:52:21.625Z,17.93
2018-12-25T20:55:17.959Z,11.50
2018-12-25T20:58:15.676Z,11.08
2018-12-25T21:01:24.444Z,21.10
2018-12-25T21:04:35.687Z,60.33
2018-12-25T21:07:40.418Z,23.85
2018-12-25T21:11:12.574Z,17.47
2018-12-25T21:14:22.854Z,12.93
2018-12-25T21:17:36.814Z,13.50
2018-12-25T21:20:44.264Z,14.13
2018-12-25T21:23:57.806Z,13.50
2018-12-25T21:27:01.813Z,18.13
2018-12-25T21:29:29.670Z,13.17
2018-12-25T21:31:58.611Z,15.00
2018-12-25T21:34:27.315Z,11.00
2018-12-25T21:36:55.398Z,11.33
2018-12-25T21:39:22.994Z,12.50
2018-12-25T21:41:50.583Z,12.73
2018-12-25T21:44:37.940Z,14.63
2018-12-25T21:47:06.520Z,16.03
2018-12-25T21:49:36.479Z,15.72
2018-12-25T21:52:04.901Z,17.17
2018-12-25T21:54:32.600Z,18.80
2018-12-25T21:57:01.287Z,25.80
2018-12-25T21:59:29.229Z,26.10
2018-12-25T22:02:19.197Z,27.00
2018-12-25T22:04:49.264Z,25.73
2018-12-25T22:07:17.187Z,27.43
2018-12-25T22:09:45.086Z,27.45
2018-12-25T22:12:13.696Z,23.20
2018-12-25T22:14:41.531Z,19.70
2018-12-25T22:17:10.191Z,15.37
2018-12-25T22:19:38.027Z,10.70
2018-12-25T22:22:05.871Z,10.72
2018-12-25T22:24:33.639Z,9.00
2018-12-25T22:27:01.839Z,9.10
2018-12-25T22:29:29.574Z,9.63
2018-12-25T22:31:57.221Z,10.70
2018-12-25T22:34:25.630Z,9.00
2018-12-25T22:36:53.260Z,9.93
2018-12-25T22:39:20.860Z,9.28
2018-12-25T22:41:48.639Z,11.45
2018-12-25T22:44:18.396Z,12.70
2018-12-25T22:46:45.995Z,17.50
2018-12-25T22:49:14.230Z,18.42
2018-12-25T22:51:42.500Z,19.70
2018-12-25T22:54:10.079Z,15.95
2018-12-25T22:56:37.707Z,16.30
2018-12-25T22:59:05.520Z,14.65
2018-12-25T23:01:33.696Z,15.40
2018-12-25T23:04:01.303Z,15.00
2018-12-25T23:06:29.150Z,14.47
2018-12-25T23:08:56.956Z,16.02
2018-12-25T23:11:24.558Z,19.17
2018-12-25T23:13:52.794Z,15.45
2018-12-25T23:16:21.032Z,15.28
2018-12-25T23:18:48.858Z,17.80
2018-12-25T23:21:16.418Z,16.30
2018-12-25T23:23:44.558Z,15.23
2018-12-25T23:26:12.801Z,14.80
2018-12-25T23:28:40.395Z,16.73
2018-12-25T23:31:07.894Z,16.93
2018-12-25T23:33:35.551Z,15.53
2018-12-25T23:36:08.727Z,13.60
2018-12-25T23:38:36.295Z,15.78
2018-12-25T23:41:03.823Z,14.30
2018-12-25T23:43:31.574Z,14.83
2018-12-25T23:45:59.055Z,15.60
2018-12-25T23:48:26.774Z,14.45
2018-12-25T23:51:13.794Z,15.65
2018-12-25T23:53:41.322Z,13.65
2018-12-25T23:56:09.034Z,13.53
2018-12-25T23:58:36.677Z,14.53
